createdAt,value
2018-09-11T00:01:33.679Z,14.40
2018-09-11T00:04:01.351Z,14.20
2018-09-11T00:06:28.927Z,14.30
2018-09-11T00:08:56.924Z,14.30
2018-09-11T00:11:25.004Z,14.30
2018-09-11T00:13:52.994Z,14.30
2018-09-11T00:16:20.615Z,14.30
2018-09-11T00:18:48.413Z,14.30
2018-09-11T00:21:16.318Z,14.30
2018-09-11T00:23:44.368Z,14.30
2018-09-11T00:26:12.143Z,14.10
2018-09-11T00:28:39.963Z,13.90
2018-09-11T00:31:07.738Z,13.90
2018-09-11T00:33:35.427Z,13.90
2018-09-11T00:36:03.728Z,13.90
2018-09-11T00:38:31.360Z,13.90
2018-09-11T00:41:00.023Z,14.00
2018-09-11T00:43:28.505Z,14.00
2018-09-11T00:45:56.147Z,14.00
2018-09-11T00:48:23.674Z,13.90
2018-09-11T00:50:51.451Z,14.00
2018-09-11T00:53:19.306Z,14.00
2018-09-11T00:55:47.459Z,14.00
2018-09-11T00:58:15.038Z,14.00
2018-09-11T01:00:42.903Z,14.00
2018-09-11T01:03:10.470Z,13.80
2018-09-11T01:05:38.205Z,13.80
2018-09-11T01:08:06.063Z,13.70
2018-09-11T01:10:33.754Z,13.70
2018-09-11T01:13:01.332Z,13.70
2018-09-11T01:15:29.590Z,13.70
2018-09-11T01:17:57.419Z,13.60
2018-09-11T01:20:25.085Z,13.60
2018-09-11T01:22:52.736Z,13.60
2018-09-11T01:25:20.403Z,13.60
2018-09-11T01:27:48.888Z,13.40
2018-09-11T01:30:18.908Z,13.30
2018-09-11T01:32:47.669Z,13.30
2018-09-11T01:35:15.436Z,13.40
2018-09-11T01:37:43.056Z,13.40
2018-09-11T01:40:10.673Z,13.40
2018-09-11T01:42:38.295Z,13.20
2018-09-11T01:45:06.067Z,13.30
2018-09-11T01:47:33.767Z,13.30
2018-09-11T01:50:01.475Z,13.30
2018-09-11T01:52:29.292Z,13.40
2018-09-11T01:54:56.919Z,13.40
2018-09-11T01:57:24.829Z,13.40
2018-09-11T01:59:52.671Z,13.40
2018-09-11T02:02:20.681Z,13.30
2018-09-11T02:04:48.316Z,13.20
2018-09-11T02:07:15.979Z,13.20
2018-09-11T02:09:43.617Z,13.30
2018-09-11T02:12:11.387Z,13.20
2018-09-11T02:14:39.063Z,13.30
2018-09-11T02:17:06.782Z,13.30
2018-09-11T02:19:34.493Z,13.20
2018-09-11T02:22:02.527Z,13.10
2018-09-11T02:24:30.803Z,13.10
2018-09-11T02:26:58.327Z,13.10
2018-09-11T02:29:26.126Z,13.10
2018-09-11T02:31:54.591Z,13.00
2018-09-11T02:34:22.323Z,13.00
2018-09-11T02:36:50.163Z,13.00
2018-09-11T02:39:17.935Z,13.10
2018-09-11T02:41:45.801Z,13.10
2018-09-11T02:44:13.532Z,13.10
2018-09-11T02:46:41.868Z,13.10
2018-09-11T02:49:09.452Z,13.10
2018-09-11T02:51:37.386Z,13.10
2018-09-11T02:54:04.988Z,13.10
2018-09-11T02:56:32.796Z,13.10
2018-09-11T02:59:00.483Z,13.10
2018-09-11T03:01:28.159Z,13.10
2018-09-11T03:03:55.947Z,13.10
2018-09-11T03:06:23.707Z,13.10
2018-09-11T03:08:51.587Z,13.10
2018-09-11T03:11:19.499Z,13.00
2018-09-11T03:13:48.107Z,13.00
2018-09-11T03:16:16.011Z,12.90
2018-09-11T03:18:43.741Z,12.70
2018-09-11T03:21:11.559Z,12.70
2018-09-11T03:23:40.111Z,12.80
2018-09-11T03:26:07.712Z,12.70
2018-09-11T03:28:35.655Z,12.70
2018-09-11T03:31:03.615Z,12.80
2018-09-11T03:33:31.596Z,12.80
2018-09-11T03:35:59.259Z,12.80
2018-09-11T03:38:27.045Z,12.80
2018-09-11T03:40:54.746Z,12.70
2018-09-11T03:43:22.919Z,12.60
2018-09-11T03:45:50.827Z,12.60
2018-09-11T03:48:19.847Z,12.50
2018-09-11T03:50:48.818Z,12.50
2018-09-11T03:53:16.851Z,12.60
2018-09-11T03:55:44.771Z,12.50
2018-09-11T03:58:13.062Z,12.50
2018-09-11T04:00:40.796Z,12.50
2018-09-11T04:03:08.416Z,12.50
2018-09-11T04:05:36.393Z,12.50
2018-09-11T04:08:04.011Z,12.50
2018-09-11T04:10:31.759Z,12.60
2018-09-11T04:12:59.443Z,12.60
2018-09-11T04:15:27.043Z,12.50
2018-09-11T04:17:54.769Z,12.50
2018-09-11T04:20:22.704Z,12.50
2018-09-11T04:22:50.378Z,12.50
2018-09-11T04:25:18.121Z,12.50
2018-09-11T04:27:45.736Z,12.50
2018-09-11T04:30:13.430Z,12.50
2018-09-11T04:32:41.160Z,12.40
2018-09-11T04:35:08.776Z,12.30
2018-09-11T04:37:36.440Z,12.30
2018-09-11T04:40:04.836Z,12.30
2018-09-11T04:42:32.699Z,12.30
2018-09-11T04:45:00.568Z,12.20
2018-09-11T04:47:28.216Z,12.10
2018-09-11T04:49:55.750Z,12.20
2018-09-11T04:52:24.673Z,12.10
2018-09-11T04:54:52.639Z,12.10
2018-09-11T04:57:20.300Z,12.00
2018-09-11T04:59:47.987Z,12.00
2018-09-11T05:02:15.517Z,11.90
2018-09-11T05:04:43.201Z,12.00
2018-09-11T05:07:10.856Z,12.10
2018-09-11T05:09:38.575Z,12.10
2018-09-11T05:12:06.280Z,12.00
2018-09-11T05:14:33.979Z,12.10
2018-09-11T05:17:01.724Z,11.90
2018-09-11T05:19:29.561Z,12.00
2018-09-11T05:21:57.267Z,12.00
2018-09-11T05:24:24.943Z,12.10
2018-09-11T05:26:52.603Z,12.10
2018-09-11T05:29:20.180Z,12.20
2018-09-11T05:31:47.822Z,12.20
2018-09-11T05:34:15.515Z,12.10
2018-09-11T05:36:43.047Z,12.30
2018-09-11T05:39:10.800Z,12.40
2018-09-11T05:41:38.494Z,12.40
2018-09-11T05:44:06.827Z,12.50
2018-09-11T05:46:34.583Z,12.60
2018-09-11T05:49:02.547Z,12.70
2018-09-11T05:51:30.487Z,12.80
2018-09-11T05:53:58.515Z,12.90
2018-09-11T05:56:26.055Z,13.00
2018-09-11T05:58:54.067Z,13.10
2018-09-11T06:01:22.410Z,13.30
2018-09-11T06:03:50.123Z,13.40
2018-09-11T06:06:17.738Z,13.60
2018-09-11T06:08:46.168Z,13.80
2018-09-11T06:11:13.807Z,14.00
2018-09-11T06:13:41.609Z,14.10
2018-09-11T06:16:09.255Z,14.20
2018-09-11T06:18:37.212Z,14.30
2018-09-11T06:21:05.360Z,14.50
2018-09-11T06:23:33.086Z,14.80
2018-09-11T06:26:00.702Z,15.00
2018-09-11T06:28:28.481Z,15.20
2018-09-11T06:30:56.355Z,15.40
2018-09-11T06:33:23.919Z,15.70
2018-09-11T06:35:51.842Z,15.90
2018-09-11T06:38:19.679Z,16.00
2018-09-11T06:40:47.414Z,16.10
2018-09-11T06:43:15.284Z,16.30
2018-09-11T06:45:43.043Z,16.60
2018-09-11T06:48:10.703Z,16.80
2018-09-11T06:50:38.295Z,17.10
2018-09-11T06:53:06.315Z,17.40
2018-09-11T06:55:34.187Z,17.60
2018-09-11T06:58:01.827Z,17.90
2018-09-11T07:00:29.641Z,18.10
2018-09-11T07:02:57.343Z,18.30
2018-09-11T07:05:24.934Z,18.60
2018-09-11T07:07:52.795Z,18.80
2018-09-11T07:10:20.456Z,18.80
2018-09-11T07:12:48.220Z,19.00
2018-09-11T07:15:15.890Z,19.20
2018-09-11T07:17:43.520Z,19.30
2018-09-11T07:20:11.598Z,19.60
2018-09-11T07:22:38.902Z,19.80
2018-09-11T07:25:06.667Z,20.00
2018-09-11T07:27:34.268Z,20.10
2018-09-11T07:30:01.891Z,20.40
2018-09-11T07:32:30.169Z,20.50
2018-09-11T07:34:57.946Z,20.50
2018-09-11T07:37:25.571Z,20.50
2018-09-11T07:39:53.475Z,20.60
2018-09-11T07:42:21.329Z,20.60
2018-09-11T07:44:49.019Z,20.70
2018-09-11T07:47:16.715Z,20.70
2018-09-11T07:49:44.473Z,21.00
2018-09-11T07:52:12.071Z,21.40
2018-09-11T07:54:39.771Z,21.50
2018-09-11T07:57:07.574Z,21.60
2018-09-11T07:59:35.172Z,21.90
2018-09-11T08:02:02.903Z,21.80
2018-09-11T08:04:30.764Z,22.10
2018-09-11T08:06:59.024Z,22.50
2018-09-11T08:09:26.772Z,22.70
2018-09-11T08:11:54.558Z,23.00
2018-09-11T08:14:23.136Z,23.60
2018-09-11T08:16:50.796Z,24.10
2018-09-11T08:19:18.677Z,24.20
2018-09-11T08:21:46.372Z,23.90
2018-09-11T08:24:13.981Z,24.30
2018-09-11T08:26:41.537Z,23.50
2018-09-11T08:29:09.304Z,23.40
2018-09-11T08:31:36.856Z,23.50
2018-09-11T08:34:04.730Z,23.50
2018-09-11T08:36:32.349Z,23.80
2018-09-11T08:38:59.939Z,24.50
2018-09-11T08:41:27.640Z,24.60
2018-09-11T08:43:55.295Z,25.30
2018-09-11T08:46:23.000Z,26.00
2018-09-11T08:48:50.672Z,26.10
2018-09-11T08:51:18.219Z,26.20
2018-09-11T08:53:46.028Z,25.90
2018-09-11T08:56:13.711Z,26.10
2018-09-11T08:58:41.533Z,25.70
2018-09-11T09:01:09.235Z,26.40
2018-09-11T09:03:37.421Z,26.10
2018-09-11T09:06:05.332Z,26.10
2018-09-11T09:08:33.040Z,26.70
2018-09-11T09:11:00.696Z,26.50
2018-09-11T09:13:28.299Z,26.20
2018-09-11T09:15:56.000Z,26.50
2018-09-11T09:18:23.895Z,27.00
2018-09-11T09:20:51.457Z,26.50
2018-09-11T09:23:19.477Z,26.80
2018-09-11T09:25:47.284Z,27.10
2018-09-11T09:28:15.006Z,27.20
2018-09-11T09:30:43.202Z,27.10
2018-09-11T09:33:11.020Z,26.70
2018-09-11T09:35:38.583Z,27.00
2018-09-11T09:38:06.187Z,27.10
2018-09-11T09:40:33.838Z,27.90
2018-09-11T09:43:01.379Z,27.60
2018-09-11T09:45:29.161Z,27.50
2018-09-11T09:47:56.951Z,28.20
2018-09-11T09:50:25.424Z,28.50
2018-09-11T09:52:53.103Z,28.20
2018-09-11T09:55:20.743Z,28.30
2018-09-11T09:57:48.559Z,27.20
2018-09-11T10:00:21.839Z,27.60
2018-09-11T10:02:49.613Z,27.70
2018-09-11T10:05:17.328Z,28.00
2018-09-11T10:07:44.897Z,28.80
2018-09-11T10:10:13.204Z,29.30
2018-09-11T10:12:40.783Z,29.30
2018-09-11T10:15:09.940Z,29.50
2018-09-11T10:17:37.614Z,29.90
2018-09-11T10:20:05.967Z,29.70
2018-09-11T10:22:33.607Z,29.60
2018-09-11T10:27:21.090Z,29.50
2018-09-11T10:29:48.737Z,29.60
2018-09-11T10:32:16.320Z,29.60
2018-09-11T10:34:44.069Z,29.40
2018-09-11T10:37:11.703Z,29.20
2018-09-11T10:39:39.288Z,29.70
2018-09-11T10:42:07.028Z,30.10
2018-09-11T10:44:34.955Z,30.90
2018-09-11T10:47:02.615Z,31.20
2018-09-11T10:49:30.364Z,30.40
2018-09-11T10:51:58.121Z,30.00
2018-09-11T10:54:26.411Z,30.30
2018-09-11T10:56:54.066Z,30.30
2018-09-11T10:59:21.843Z,29.90
2018-09-11T11:01:49.617Z,30.10
2018-09-11T11:04:17.518Z,30.80
2018-09-11T11:06:45.256Z,31.60
2018-09-11T11:09:12.886Z,31.60
2018-09-11T11:11:40.838Z,32.20
2018-09-11T11:14:08.968Z,32.20
2018-09-11T11:16:36.872Z,31.70
2018-09-11T11:19:04.819Z,31.60
2018-09-11T11:21:32.562Z,31.20
2018-09-11T11:24:00.262Z,30.90
2018-09-11T11:26:28.128Z,30.00
2018-09-11T11:28:55.863Z,30.10
2018-09-11T11:31:23.440Z,30.30
2018-09-11T11:33:51.667Z,30.90
2018-09-11T11:36:19.620Z,31.00
2018-09-11T11:38:47.168Z,30.60
2018-09-11T11:41:14.813Z,30.20
2018-09-11T11:43:42.827Z,30.40
2018-09-11T11:46:10.472Z,30.20
2018-09-11T11:48:38.164Z,30.20
2018-09-11T11:51:05.923Z,30.20
2018-09-11T11:53:34.320Z,30.00
2018-09-11T11:56:02.159Z,29.90
2018-09-11T11:58:29.823Z,29.70
2018-09-11T12:00:57.479Z,29.80
2018-09-11T12:03:25.277Z,30.00
2018-09-11T12:05:53.194Z,30.40
2018-09-11T12:08:20.792Z,30.50
2018-09-11T12:10:48.631Z,30.50
2018-09-11T12:13:17.015Z,30.40
2018-09-11T12:15:44.653Z,30.50
2018-09-11T12:18:12.410Z,30.40
2018-09-11T12:20:40.160Z,30.30
2018-09-11T12:23:07.907Z,30.50
2018-09-11T12:25:36.722Z,30.50
2018-09-11T12:28:04.413Z,30.60
2018-09-11T12:30:32.225Z,30.20
2018-09-11T12:33:00.351Z,30.40
2018-09-11T12:35:28.651Z,30.50
2018-09-11T12:37:56.271Z,31.10
2018-09-11T12:40:24.784Z,31.60
2018-09-11T12:42:52.519Z,31.20
2018-09-11T12:45:20.083Z,31.40
2018-09-11T12:47:48.070Z,31.10
2018-09-11T12:50:15.790Z,30.30
2018-09-11T12:52:43.659Z,30.50
2018-09-11T12:55:12.222Z,30.80
2018-09-11T12:57:39.967Z,30.20
2018-09-11T13:00:08.556Z,30.20
2018-09-11T13:02:36.926Z,30.10
2018-09-11T13:05:05.208Z,29.80
2018-09-11T13:07:33.113Z,29.90
2018-09-11T13:10:00.990Z,30.10
2018-09-11T13:12:28.780Z,30.20
2018-09-11T13:14:56.848Z,30.10
2018-09-11T13:17:25.289Z,30.00
2018-09-11T13:19:53.154Z,29.80
2018-09-11T13:22:21.015Z,29.50
2018-09-11T13:24:48.688Z,29.50
2018-09-11T13:27:16.463Z,29.80
2018-09-11T13:29:44.263Z,30.10
2018-09-11T13:32:11.947Z,30.10
2018-09-11T13:34:39.680Z,30.30
2018-09-11T13:37:07.279Z,29.70
2018-09-11T13:39:35.071Z,29.20
2018-09-11T13:42:02.897Z,29.40
2018-09-11T13:44:30.673Z,29.10
2018-09-11T13:46:58.420Z,28.80
2018-09-11T13:49:26.699Z,28.60
2018-09-11T13:51:54.429Z,28.70
2018-09-11T13:54:22.040Z,28.80
2018-09-11T13:56:49.764Z,28.70
2018-09-11T13:59:17.705Z,28.50
2018-09-11T14:01:45.372Z,28.30
2018-09-11T14:04:13.902Z,28.00
2018-09-11T14:06:41.707Z,27.70
2018-09-11T14:09:13.070Z,27.80
2018-09-11T14:11:41.392Z,28.00
2018-09-11T14:14:09.537Z,28.20
2018-09-11T14:16:37.299Z,28.40
2018-09-11T14:19:05.415Z,28.50
2018-09-11T14:21:33.362Z,28.60
2018-09-11T14:24:02.173Z,28.70
2018-09-11T14:26:30.317Z,28.90
2018-09-11T14:28:57.920Z,29.00
2018-09-11T14:31:26.392Z,29.00
2018-09-11T14:33:54.340Z,29.00
2018-09-11T14:36:21.944Z,29.00
2018-09-11T14:38:49.545Z,29.10
2018-09-11T14:41:17.263Z,29.10
2018-09-11T14:43:45.033Z,29.10
2018-09-11T14:46:12.794Z,29.00
2018-09-11T14:48:40.459Z,29.00
2018-09-11T14:51:08.188Z,29.00
2018-09-11T14:53:36.111Z,29.00
2018-09-11T14:56:03.933Z,28.80
2018-09-11T14:58:32.832Z,28.80
2018-09-11T15:01:00.420Z,28.90
2018-09-11T15:03:28.096Z,29.00
2018-09-11T15:05:56.008Z,29.10
2018-09-11T15:08:23.548Z,29.20
2018-09-11T15:10:51.316Z,29.30
2018-09-11T15:13:19.339Z,29.60
2018-09-11T15:15:47.520Z,29.80
2018-09-11T15:18:15.389Z,30.10
2018-09-11T15:20:43.158Z,30.50
2018-09-11T15:23:11.233Z,31.40
2018-09-11T15:25:39.148Z,32.20
2018-09-11T15:28:06.723Z,33.00
2018-09-11T15:30:34.351Z,33.60
2018-09-11T15:33:02.828Z,34.10
2018-09-11T15:35:30.578Z,34.10
2018-09-11T15:37:58.748Z,35.10
2018-09-11T15:40:26.440Z,36.10
2018-09-11T15:42:54.048Z,35.90
2018-09-11T15:45:21.911Z,36.00
2018-09-11T15:47:49.716Z,35.70
2018-09-11T15:50:18.235Z,35.30
2018-09-11T15:52:45.873Z,34.80
2018-09-11T15:55:13.597Z,35.00
2018-09-11T15:57:41.912Z,35.50
2018-09-11T16:00:11.600Z,35.50
2018-09-11T16:02:39.267Z,35.70
2018-09-11T16:05:07.145Z,35.90
2018-09-11T16:07:34.723Z,36.80
2018-09-11T16:10:02.464Z,37.00
2018-09-11T16:12:30.101Z,36.30
2018-09-11T16:14:57.868Z,35.80
2018-09-11T16:17:25.543Z,35.40
2018-09-11T16:19:53.339Z,33.80
2018-09-11T16:22:20.962Z,32.60
2018-09-11T16:24:48.699Z,32.00
2018-09-11T16:27:16.500Z,31.50
2018-09-11T16:29:44.322Z,31.00
2018-09-11T16:32:12.403Z,30.20
2018-09-11T16:34:40.245Z,30.00
2018-09-11T16:37:07.875Z,29.30
2018-09-11T16:39:35.672Z,29.10
2018-09-11T16:42:03.378Z,29.00
2018-09-11T16:44:31.699Z,28.70
2018-09-11T16:46:59.454Z,28.50
2018-09-11T16:49:27.131Z,28.50
2018-09-11T16:51:54.788Z,28.10
2018-09-11T16:54:23.357Z,27.90
2018-09-11T16:56:51.587Z,27.70
2018-09-11T16:59:19.349Z,27.60
2018-09-11T17:01:47.081Z,27.30
2018-09-11T17:04:14.764Z,27.20
2018-09-11T17:06:42.535Z,27.00
2018-09-11T17:09:10.566Z,26.70
2018-09-11T17:11:39.121Z,26.60
2018-09-11T17:14:06.975Z,26.50
2018-09-11T17:16:34.641Z,26.40
2018-09-11T17:19:02.386Z,26.30
2018-09-11T17:21:30.872Z,26.10
2018-09-11T17:23:58.431Z,25.90
2018-09-11T17:26:26.266Z,25.80
2018-09-11T17:28:54.248Z,25.70
2018-09-11T17:31:22.203Z,25.60
2018-09-11T17:33:50.158Z,25.40
2018-09-11T17:36:17.963Z,25.20
2018-09-11T17:38:45.589Z,24.90
2018-09-11T17:41:13.372Z,24.70
2018-09-11T17:43:41.145Z,24.50
2018-09-11T17:46:09.671Z,24.10
2018-09-11T17:48:37.463Z,24.00
2018-09-11T17:51:05.463Z,23.70
2018-09-11T17:53:34.771Z,23.70
2018-09-11T17:56:02.470Z,23.40
2018-09-11T17:58:30.872Z,23.10
2018-09-11T18:00:58.780Z,22.70
2018-09-11T18:03:26.712Z,22.40
2018-09-11T18:05:54.755Z,22.30
2018-09-11T18:08:22.532Z,22.20
2018-09-11T18:10:50.352Z,22.00
2018-09-11T18:13:19.002Z,22.00
2018-09-11T18:15:47.660Z,21.90
2018-09-11T18:18:15.424Z,21.90
2018-09-11T18:20:43.232Z,21.80
2018-09-11T18:23:11.083Z,21.60
2018-09-11T18:25:38.831Z,21.60
2018-09-11T18:28:06.591Z,21.50
2018-09-11T18:30:34.189Z,21.40
2018-09-11T18:33:02.702Z,21.10
2018-09-11T18:35:30.371Z,20.90
2018-09-11T18:37:57.953Z,20.70
2018-09-11T18:40:25.937Z,20.40
2018-09-11T18:42:53.952Z,20.10
2018-09-11T18:45:22.267Z,20.10
2018-09-11T18:47:50.833Z,20.10
2018-09-11T18:50:19.161Z,20.10
2018-09-11T18:52:47.875Z,20.00
2018-09-11T18:55:15.682Z,19.90
2018-09-11T18:57:43.678Z,19.90
2018-09-11T19:00:11.803Z,19.80
2018-09-11T19:02:39.523Z,19.70
2018-09-11T19:05:08.199Z,19.70
2018-09-11T19:07:35.846Z,19.60
2018-09-11T19:10:03.569Z,19.50
2018-09-11T19:12:31.431Z,19.30
2018-09-11T19:14:59.156Z,19.20
2018-09-11T19:17:27.015Z,19.00
2018-09-11T19:19:54.906Z,18.90
2018-09-11T19:22:22.571Z,18.90
2018-09-11T19:24:50.351Z,18.90
2018-09-11T19:27:17.949Z,18.90
2018-09-11T19:29:45.615Z,18.80
2018-09-11T19:32:14.028Z,18.70
2018-09-11T19:34:42.053Z,18.40
2018-09-11T19:37:09.732Z,18.20
2018-09-11T19:39:37.632Z,18.20
2018-09-11T19:42:05.480Z,18.20
2018-09-11T19:44:33.100Z,18.20
2018-09-11T19:47:00.832Z,18.20
2018-09-11T19:49:28.495Z,18.20
2018-09-11T19:51:57.171Z,18.10
2018-09-11T19:54:24.752Z,18.10
2018-09-11T19:56:52.356Z,18.10
2018-09-11T19:59:20.208Z,18.00
2018-09-11T20:01:48.610Z,17.90
2018-09-11T20:04:16.940Z,17.60
2018-09-11T20:06:44.776Z,17.60
2018-09-11T20:09:13.311Z,17.60
2018-09-11T20:11:41.220Z,17.60
2018-09-11T20:14:10.300Z,17.50
2018-09-11T20:16:38.166Z,17.30
2018-09-11T20:19:06.676Z,17.20
2018-09-11T20:21:34.717Z,17.20
2018-09-11T20:24:02.467Z,17.20
2018-09-11T20:26:30.936Z,17.20
2018-09-11T20:28:58.603Z,17.20
2018-09-11T20:31:26.204Z,17.20
2018-09-11T20:33:54.033Z,17.10
2018-09-11T20:36:22.007Z,17.10
2018-09-11T20:38:50.254Z,17.10
2018-09-11T20:41:17.852Z,17.00
2018-09-11T20:43:45.623Z,16.90
2018-09-11T20:46:13.680Z,16.80
2018-09-11T20:48:41.299Z,16.50
2018-09-11T20:51:08.959Z,16.20
2018-09-11T20:53:36.827Z,16.20
2018-09-11T20:56:04.734Z,16.20
2018-09-11T20:58:32.378Z,16.20
2018-09-11T21:01:00.366Z,16.20
2018-09-11T21:03:29.131Z,16.20
2018-09-11T21:05:56.824Z,16.10
2018-09-11T21:08:24.380Z,16.10
2018-09-11T21:10:52.163Z,16.10
2018-09-11T21:13:20.306Z,16.10
2018-09-11T21:15:47.836Z,16.00
2018-09-11T21:18:16.774Z,16.00
2018-09-11T21:20:44.550Z,15.90
2018-09-11T21:23:12.873Z,15.90
2018-09-11T21:25:40.446Z,15.70
2018-09-11T21:28:08.337Z,15.70
2018-09-11T21:30:36.015Z,15.70
2018-09-11T21:33:03.754Z,15.70
2018-09-11T21:35:32.222Z,15.70
2018-09-11T21:38:00.468Z,15.60
2018-09-11T21:40:28.204Z,15.60
2018-09-11T21:42:56.067Z,15.30
2018-09-11T21:45:23.843Z,15.10
2018-09-11T21:47:52.058Z,15.10
2018-09-11T21:50:19.858Z,15.20
2018-09-11T21:52:47.548Z,15.10
2018-09-11T21:55:15.079Z,15.10
2018-09-11T21:57:42.675Z,15.10
2018-09-11T22:00:11.753Z,14.90
2018-09-11T22:02:39.679Z,14.90
2018-09-11T22:05:07.923Z,14.90
2018-09-11T22:07:35.539Z,14.90
2018-09-11T22:10:03.656Z,14.90
2018-09-11T22:12:31.771Z,14.80
2018-09-11T22:14:59.537Z,14.80
2018-09-11T22:17:27.419Z,14.80
2018-09-11T22:19:55.143Z,14.80
2018-09-11T22:22:22.803Z,14.60
2018-09-11T22:24:51.145Z,14.60
2018-09-11T22:27:19.739Z,14.60
2018-09-11T22:29:47.656Z,14.60
2018-09-11T22:32:15.307Z,14.70
2018-09-11T22:34:42.971Z,14.50
2018-09-11T22:37:10.558Z,14.50
2018-09-11T22:39:38.363Z,14.40
2018-09-11T22:42:06.267Z,14.30
2018-09-11T22:44:34.157Z,14.30
2018-09-11T22:47:02.363Z,14.30
2018-09-11T22:49:29.911Z,14.20
2018-09-11T22:51:58.324Z,14.10
2018-09-11T22:54:25.888Z,14.20
2018-09-11T22:56:53.592Z,14.10
2018-09-11T22:59:21.574Z,14.10
2018-09-11T23:01:49.343Z,14.20
2018-09-11T23:04:16.903Z,14.10
2018-09-11T23:06:45.301Z,14.10
2018-09-11T23:09:12.836Z,14.10
2018-09-11T23:11:40.798Z,14.10
2018-09-11T23:14:08.471Z,14.00
2018-09-11T23:16:36.276Z,13.80
2018-09-11T23:19:04.852Z,13.80
2018-09-11T23:21:32.822Z,13.80
2018-09-11T23:24:00.782Z,13.80
2018-09-11T23:26:28.576Z,13.80
2018-09-11T23:28:56.331Z,13.80
2018-09-11T23:31:24.031Z,13.80
2018-09-11T23:33:52.167Z,13.90
2018-09-11T23:36:19.792Z,13.70
2018-09-11T23:38:47.495Z,13.70
2018-09-11T23:41:15.414Z,13.70
2018-09-11T23:43:44.057Z,13.60
2018-09-11T23:46:11.885Z,13.60
2018-09-11T23:48:39.562Z,13.60
2018-09-11T23:51:07.396Z,13.60
2018-09-11T23:53:35.085Z,13.50
2018-09-11T23:56:02.660Z,13.50
2018-09-11T23:58:30.263Z,13.50
